sensor_id;sensor_type;location;lat;lon;timestamp;P1;durP1;ratioP1;P2;durP2;ratioP2
61188;SDS011;47054;39.716;2.904;2023-05-10T00:02:12;3.03;;;1.50;;
61188;SDS011;47054;39.716;2.904;2023-05-10T00:04:57;3.88;;;1.67;;
61188;SDS011;47054;39.716;2.904;2023-05-10T00:07:41;4.97;;;2.05;;
61188;SDS011;47054;39.716;2.904;2023-05-10T00:10:28;3.67;;;1.50;;
61188;SDS011;47054;39.716;2.904;2023-05-10T00:13:13;2.40;;;1.30;;
61188;SDS011;47054;39.716;2.904;2023-05-10T00:15:57;4.20;;;1.55;;
61188;SDS011;47054;39.716;2.904;2023-05-10T00:18:42;4.15;;;1.35;;
61188;SDS011;47054;39.716;2.904;2023-05-10T00:21:27;3.13;;;1.30;;
61188;SDS011;47054;39.716;2.904;2023-05-10T00:24:12;3.25;;;1.30;;
61188;SDS011;47054;39.716;2.904;2023-05-10T00:26:57;3.65;;;1.42;;
61188;SDS011;47054;39.716;2.904;2023-05-10T00:29:42;2.58;;;1.33;;
61188;SDS011;47054;39.716;2.904;2023-05-10T00:32:26;3.72;;;1.60;;
61188;SDS011;47054;39.716;2.904;2023-05-10T00:35:13;2.78;;;1.40;;
61188;SDS011;47054;39.716;2.904;2023-05-10T00:37:58;3.13;;;1.35;;
61188;SDS011;47054;39.716;2.904;2023-05-10T00:40:42;3.40;;;1.20;;
61188;SDS011;47054;39.716;2.904;2023-05-10T00:43:34;3.05;;;1.15;;
61188;SDS011;47054;39.716;2.904;2023-05-10T00:46:18;4.15;;;1.50;;
61188;SDS011;47054;39.716;2.904;2023-05-10T00:49:03;2.63;;;1.40;;
61188;SDS011;47054;39.716;2.904;2023-05-10T00:51:48;1.98;;;1.25;;
61188;SDS011;47054;39.716;2.904;2023-05-10T00:54:33;2.38;;;1.20;;
61188;SDS011;47054;39.716;2.904;2023-05-10T00:57:18;2.20;;;1.15;;
61188;SDS011;47054;39.716;2.904;2023-05-10T01:00:03;2.38;;;1.40;;
61188;SDS011;47054;39.716;2.904;2023-05-10T01:02:48;2.53;;;1.20;;
61188;SDS011;47054;39.716;2.904;2023-05-10T01:05:34;2.30;;;1.13;;
61188;SDS011;47054;39.716;2.904;2023-05-10T01:08:18;2.67;;;1.17;;
61188;SDS011;47054;39.716;2.904;2023-05-10T01:11:04;2.80;;;1.27;;
61188;SDS011;47054;39.716;2.904;2023-05-10T01:13:50;4.18;;;1.30;;
61188;SDS011;47054;39.716;2.904;2023-05-10T01:16:40;2.20;;;1.33;;
61188;SDS011;47054;39.716;2.904;2023-05-10T01:19:28;2.33;;;1.30;;
61188;SDS011;47054;39.716;2.904;2023-05-10T01:31:27;3.97;;;1.25;;
61188;SDS011;47054;39.716;2.904;2023-05-10T01:34:35;2.83;;;1.02;;
61188;SDS011;47054;39.716;2.904;2023-05-10T01:37:33;1.33;;;1.00;;
61188;SDS011;47054;39.716;2.904;2023-05-10T01:40:30;2.33;;;0.93;;
61188;SDS011;47054;39.716;2.904;2023-05-10T01:43:26;2.38;;;1.05;;
61188;SDS011;47054;39.716;2.904;2023-05-10T01:46:24;1.08;;;0.85;;
61188;SDS011;47054;39.716;2.904;2023-05-10T01:49:23;2.25;;;1.10;;
61188;SDS011;47054;39.716;2.904;2023-05-10T01:52:17;1.63;;;0.95;;
61188;SDS011;47054;39.716;2.904;2023-05-10T01:55:14;2.30;;;1.05;;
61188;SDS011;47054;39.716;2.904;2023-05-10T01:58:02;1.80;;;1.00;;
61188;SDS011;47054;39.716;2.904;2023-05-10T02:00:50;1.73;;;0.90;;
61188;SDS011;47054;39.716;2.904;2023-05-10T02:03:37;1.77;;;1.05;;
61188;SDS011;47054;39.716;2.904;2023-05-10T02:06:24;2.28;;;1.10;;
61188;SDS011;47054;39.716;2.904;2023-05-10T02:09:10;2.05;;;1.02;;
61188;SDS011;47054;39.716;2.904;2023-05-10T02:11:55;1.10;;;0.80;;
61188;SDS011;47054;39.716;2.904;2023-05-10T02:14:43;2.30;;;1.23;;
61188;SDS011;47054;39.716;2.904;2023-05-10T02:17:30;2.17;;;1.00;;
61188;SDS011;47054;39.716;2.904;2023-05-10T02:20:16;2.28;;;1.00;;
61188;SDS011;47054;39.716;2.904;2023-05-10T02:23:03;1.92;;;1.00;;
61188;SDS011;47054;39.716;2.904;2023-05-10T02:25:49;3.60;;;1.10;;
61188;SDS011;47054;39.716;2.904;2023-05-10T02:28:38;2.10;;;1.00;;
61188;SDS011;47054;39.716;2.904;2023-05-10T02:31:24;1.58;;;0.93;;
61188;SDS011;47054;39.716;2.904;2023-05-10T02:34:10;2.17;;;0.88;;
61188;SDS011;47054;39.716;2.904;2023-05-10T02:36:55;1.70;;;0.85;;
61188;SDS011;47054;39.716;2.904;2023-05-10T02:39:41;2.53;;;0.90;;
61188;SDS011;47054;39.716;2.904;2023-05-10T02:42:29;1.60;;;0.90;;
61188;SDS011;47054;39.716;2.904;2023-05-10T02:45:18;1.38;;;1.00;;
61188;SDS011;47054;39.716;2.904;2023-05-10T02:48:06;1.95;;;1.10;;
61188;SDS011;47054;39.716;2.904;2023-05-10T02:50:51;1.70;;;0.88;;
61188;SDS011;47054;39.716;2.904;2023-05-10T02:53:38;1.50;;;0.90;;
61188;SDS011;47054;39.716;2.904;2023-05-10T02:56:31;1.88;;;0.98;;
61188;SDS011;47054;39.716;2.904;2023-05-10T02:59:18;3.25;;;1.05;;
61188;SDS011;47054;39.716;2.904;2023-05-10T03:02:03;2.00;;;1.00;;
61188;SDS011;47054;39.716;2.904;2023-05-10T03:04:47;1.48;;;0.90;;
61188;SDS011;47054;39.716;2.904;2023-05-10T03:07:32;0.95;;;0.80;;
61188;SDS011;47054;39.716;2.904;2023-05-10T03:10:18;1.13;;;0.80;;
61188;SDS011;47054;39.716;2.904;2023-05-10T03:16:15;1.58;;;0.80;;
61188;SDS011;47054;39.716;2.904;2023-05-10T03:19:24;2.85;;;0.90;;
61188;SDS011;47054;39.716;2.904;2023-05-10T03:22:25;1.67;;;0.80;;
61188;SDS011;47054;39.716;2.904;2023-05-10T03:25:15;1.05;;;0.70;;
61188;SDS011;47054;39.716;2.904;2023-05-10T03:28:02;1.92;;;0.80;;
61188;SDS011;47054;39.716;2.904;2023-05-10T03:30:49;1.80;;;0.98;;
61188;SDS011;47054;39.716;2.904;2023-05-10T03:33:45;2.03;;;0.90;;
61188;SDS011;47054;39.716;2.904;2023-05-10T03:36:30;1.15;;;0.80;;
61188;SDS011;47054;39.716;2.904;2023-05-10T03:39:15;1.70;;;0.90;;
61188;SDS011;47054;39.716;2.904;2023-05-10T03:42:01;2.10;;;0.90;;
61188;SDS011;47054;39.716;2.904;2023-05-10T03:44:48;1.23;;;0.70;;
61188;SDS011;47054;39.716;2.904;2023-05-10T03:47:33;1.00;;;0.70;;
61188;SDS011;47054;39.716;2.904;2023-05-10T03:50:18;1.58;;;0.80;;
61188;SDS011;47054;39.716;2.904;2023-05-10T03:53:03;1.23;;;0.80;;
61188;SDS011;47054;39.716;2.904;2023-05-10T03:55:48;1.48;;;0.80;;
61188;SDS011;47054;39.716;2.904;2023-05-10T03:58:33;1.70;;;0.88;;
61188;SDS011;47054;39.716;2.904;2023-05-10T04:01:17;1.30;;;0.80;;
61188;SDS011;47054;39.716;2.904;2023-05-10T04:04:02;1.38;;;0.80;;
61188;SDS011;47054;39.716;2.904;2023-05-10T04:06:49;0.98;;;0.70;;
61188;SDS011;47054;39.716;2.904;2023-05-10T04:09:33;0.90;;;0.70;;
61188;SDS011;47054;39.716;2.904;2023-05-10T04:12:18;1.73;;;0.80;;
61188;SDS011;47054;39.716;2.904;2023-05-10T04:15:02;1.88;;;0.88;;
61188;SDS011;47054;39.716;2.904;2023-05-10T04:17:48;1.15;;;0.60;;
61188;SDS011;47054;39.716;2.904;2023-05-10T04:20:32;1.23;;;0.70;;
61188;SDS011;47054;39.716;2.904;2023-05-10T04:23:17;1.17;;;0.60;;
61188;SDS011;47054;39.716;2.904;2023-05-10T04:26:02;1.67;;;0.73;;
61188;SDS011;47054;39.716;2.904;2023-05-10T04:28:46;0.90;;;0.80;;
61188;SDS011;47054;39.716;2.904;2023-05-10T04:31:31;1.02;;;0.60;;
61188;SDS011;47054;39.716;2.904;2023-05-10T04:34:15;0.73;;;0.60;;
61188;SDS011;47054;39.716;2.904;2023-05-10T04:37:00;1.30;;;0.60;;
61188;SDS011;47054;39.716;2.904;2023-05-10T04:39:44;1.10;;;0.60;;
61188;SDS011;47054;39.716;2.904;2023-05-10T04:42:29;0.90;;;0.70;;
61188;SDS011;47054;39.716;2.904;2023-05-10T04:45:13;0.68;;;0.60;;
61188;SDS011;47054;39.716;2.904;2023-05-10T04:48:01;1.10;;;0.70;;
61188;SDS011;47054;39.716;2.904;2023-05-10T04:50:45;1.33;;;0.63;;
61188;SDS011;47054;39.716;2.904;2023-05-10T04:53:30;1.95;;;0.52;;
61188;SDS011;47054;39.716;2.904;2023-05-10T04:56:14;1.20;;;0.80;;
61188;SDS011;47054;39.716;2.904;2023-05-10T04:59:00;1.42;;;0.80;;
61188;SDS011;47054;39.716;2.904;2023-05-10T05:01:44;1.35;;;0.80;;
61188;SDS011;47054;39.716;2.904;2023-05-10T05:04:29;1.90;;;1.00;;
61188;SDS011;47054;39.716;2.904;2023-05-10T05:07:15;2.72;;;1.30;;
61188;SDS011;47054;39.716;2.904;2023-05-10T05:09:59;3.83;;;1.60;;
61188;SDS011;47054;39.716;2.904;2023-05-10T05:12:44;2.50;;;1.20;;
61188;SDS011;47054;39.716;2.904;2023-05-10T05:15:28;4.10;;;1.90;;
61188;SDS011;47054;39.716;2.904;2023-05-10T05:18:14;4.75;;;2.22;;
61188;SDS011;47054;39.716;2.904;2023-05-10T05:20:58;5.63;;;2.40;;
61188;SDS011;47054;39.716;2.904;2023-05-10T05:23:43;3.25;;;1.75;;
61188;SDS011;47054;39.716;2.904;2023-05-10T05:26:28;8.15;;;3.03;;
61188;SDS011;47054;39.716;2.904;2023-05-10T05:29:13;6.47;;;2.67;;
61188;SDS011;47054;39.716;2.904;2023-05-10T05:31:58;10.27;;;4.47;;
61188;SDS011;47054;39.716;2.904;2023-05-10T05:34:44;9.85;;;4.15;;
61188;SDS011;47054;39.716;2.904;2023-05-10T05:37:29;13.23;;;4.75;;
61188;SDS011;47054;39.716;2.904;2023-05-10T05:40:13;13.93;;;5.20;;
61188;SDS011;47054;39.716;2.904;2023-05-10T05:42:58;12.00;;;4.68;;
61188;SDS011;47054;39.716;2.904;2023-05-10T05:45:42;14.50;;;5.40;;
61188;SDS011;47054;39.716;2.904;2023-05-10T05:48:27;13.77;;;5.75;;
61188;SDS011;47054;39.716;2.904;2023-05-10T05:51:13;12.50;;;5.78;;
61188;SDS011;47054;39.716;2.904;2023-05-10T05:53:58;15.57;;;4.93;;
61188;SDS011;47054;39.716;2.904;2023-05-10T05:56:43;18.77;;;6.53;;
61188;SDS011;47054;39.716;2.904;2023-05-10T05:59:28;15.60;;;6.05;;
61188;SDS011;47054;39.716;2.904;2023-05-10T06:02:12;14.60;;;5.10;;
61188;SDS011;47054;39.716;2.904;2023-05-10T06:04:57;15.15;;;5.88;;
61188;SDS011;47054;39.716;2.904;2023-05-10T06:07:41;13.65;;;5.47;;
61188;SDS011;47054;39.716;2.904;2023-05-10T06:10:26;14.10;;;5.47;;
61188;SDS011;47054;39.716;2.904;2023-05-10T06:13:10;15.43;;;5.75;;
61188;SDS011;47054;39.716;2.904;2023-05-10T06:15:54;15.88;;;5.82;;
61188;SDS011;47054;39.716;2.904;2023-05-10T06:18:39;12.00;;;4.82;;
61188;SDS011;47054;39.716;2.904;2023-05-10T06:21:24;9.32;;;4.30;;
61188;SDS011;47054;39.716;2.904;2023-05-10T06:24:09;12.55;;;5.15;;
61188;SDS011;47054;39.716;2.904;2023-05-10T06:26:54;11.93;;;4.43;;
61188;SDS011;47054;39.716;2.904;2023-05-10T06:29:39;10.80;;;4.30;;
61188;SDS011;47054;39.716;2.904;2023-05-10T06:32:23;11.40;;;4.43;;
61188;SDS011;47054;39.716;2.904;2023-05-10T06:35:08;11.30;;;4.70;;
61188;SDS011;47054;39.716;2.904;2023-05-10T06:37:53;10.18;;;4.22;;
61188;SDS011;47054;39.716;2.904;2023-05-10T06:40:40;9.18;;;4.07;;
61188;SDS011;47054;39.716;2.904;2023-05-10T06:43:25;11.23;;;4.07;;
61188;SDS011;47054;39.716;2.904;2023-05-10T06:46:12;11.05;;;4.10;;
61188;SDS011;47054;39.716;2.904;2023-05-10T06:48:56;10.45;;;3.65;;
61188;SDS011;47054;39.716;2.904;2023-05-10T06:51:41;10.52;;;4.10;;
61188;SDS011;47054;39.716;2.904;2023-05-10T06:54:26;9.65;;;4.05;;
61188;SDS011;47054;39.716;2.904;2023-05-10T06:57:10;9.82;;;4.35;;
61188;SDS011;47054;39.716;2.904;2023-05-10T06:59:54;9.27;;;4.00;;
61188;SDS011;47054;39.716;2.904;2023-05-10T07:02:40;9.80;;;4.00;;
61188;SDS011;47054;39.716;2.904;2023-05-10T07:05:24;9.90;;;3.90;;
61188;SDS011;47054;39.716;2.904;2023-05-10T07:08:11;8.43;;;3.78;;
61188;SDS011;47054;39.716;2.904;2023-05-10T07:11:01;7.40;;;3.45;;
61188;SDS011;47054;39.716;2.904;2023-05-10T07:13:49;7.93;;;3.55;;
61188;SDS011;47054;39.716;2.904;2023-05-10T07:16:33;8.00;;;3.83;;
61188;SDS011;47054;39.716;2.904;2023-05-10T07:19:18;8.35;;;4.00;;
61188;SDS011;47054;39.716;2.904;2023-05-10T07:22:02;8.38;;;4.15;;
61188;SDS011;47054;39.716;2.904;2023-05-10T07:24:47;9.02;;;3.78;;
61188;SDS011;47054;39.716;2.904;2023-05-10T07:27:32;8.95;;;3.33;;
61188;SDS011;47054;39.716;2.904;2023-05-10T07:30:16;9.82;;;3.70;;
61188;SDS011;47054;39.716;2.904;2023-05-10T07:33:01;8.98;;;3.53;;
61188;SDS011;47054;39.716;2.904;2023-05-10T07:35:45;8.88;;;3.53;;
61188;SDS011;47054;39.716;2.904;2023-05-10T07:38:30;11.10;;;3.50;;
61188;SDS011;47054;39.716;2.904;2023-05-10T07:41:15;8.35;;;3.53;;
61188;SDS011;47054;39.716;2.904;2023-05-10T07:43:59;6.97;;;3.35;;
61188;SDS011;47054;39.716;2.904;2023-05-10T07:46:43;7.43;;;3.28;;
61188;SDS011;47054;39.716;2.904;2023-05-10T07:49:28;8.30;;;3.15;;
61188;SDS011;47054;39.716;2.904;2023-05-10T07:52:13;8.65;;;3.50;;
61188;SDS011;47054;39.716;2.904;2023-05-10T07:54:57;7.57;;;3.25;;
61188;SDS011;47054;39.716;2.904;2023-05-10T07:57:42;8.25;;;3.50;;
61188;SDS011;47054;39.716;2.904;2023-05-10T08:00:26;6.95;;;3.03;;
61188;SDS011;47054;39.716;2.904;2023-05-10T08:03:10;6.68;;;3.30;;
61188;SDS011;47054;39.716;2.904;2023-05-10T08:05:56;6.25;;;2.83;;
61188;SDS011;47054;39.716;2.904;2023-05-10T08:08:40;7.38;;;2.92;;
61188;SDS011;47054;39.716;2.904;2023-05-10T08:11:25;8.27;;;3.00;;
61188;SDS011;47054;39.716;2.904;2023-05-10T08:14:11;7.10;;;2.88;;
61188;SDS011;47054;39.716;2.904;2023-05-10T08:16:56;7.25;;;3.00;;
61188;SDS011;47054;39.716;2.904;2023-05-10T08:19:41;8.68;;;3.03;;
61188;SDS011;47054;39.716;2.904;2023-05-10T08:22:25;6.45;;;2.90;;
61188;SDS011;47054;39.716;2.904;2023-05-10T08:25:10;8.10;;;2.85;;
61188;SDS011;47054;39.716;2.904;2023-05-10T08:27:54;5.65;;;2.60;;
61188;SDS011;47054;39.716;2.904;2023-05-10T08:30:39;8.77;;;2.80;;
61188;SDS011;47054;39.716;2.904;2023-05-10T08:33:23;7.70;;;2.75;;
61188;SDS011;47054;39.716;2.904;2023-05-10T08:36:07;6.80;;;2.63;;
61188;SDS011;47054;39.716;2.904;2023-05-10T08:38:53;4.88;;;2.28;;
61188;SDS011;47054;39.716;2.904;2023-05-10T08:41:39;5.93;;;2.75;;
61188;SDS011;47054;39.716;2.904;2023-05-10T08:44:24;7.90;;;2.80;;
61188;SDS011;47054;39.716;2.904;2023-05-10T08:47:09;5.93;;;2.45;;
61188;SDS011;47054;39.716;2.904;2023-05-10T08:49:55;5.72;;;2.45;;
61188;SDS011;47054;39.716;2.904;2023-05-10T08:52:43;6.82;;;2.65;;
61188;SDS011;47054;39.716;2.904;2023-05-10T08:55:31;5.63;;;2.22;;
61188;SDS011;47054;39.716;2.904;2023-05-10T08:58:17;6.82;;;2.42;;
61188;SDS011;47054;39.716;2.904;2023-05-10T09:01:04;6.47;;;2.58;;
61188;SDS011;47054;39.716;2.904;2023-05-10T09:03:49;5.88;;;2.63;;
61188;SDS011;47054;39.716;2.904;2023-05-10T09:06:34;5.25;;;2.10;;
61188;SDS011;47054;39.716;2.904;2023-05-10T09:09:20;5.45;;;2.38;;
61188;SDS011;47054;39.716;2.904;2023-05-10T09:12:05;5.57;;;2.33;;
61188;SDS011;47054;39.716;2.904;2023-05-10T09:14:54;5.05;;;2.30;;
61188;SDS011;47054;39.716;2.904;2023-05-10T09:17:40;5.22;;;2.75;;
61188;SDS011;47054;39.716;2.904;2023-05-10T09:20:26;5.57;;;2.58;;
61188;SDS011;47054;39.716;2.904;2023-05-10T09:23:10;7.43;;;2.35;;
61188;SDS011;47054;39.716;2.904;2023-05-10T09:26:05;5.72;;;2.38;;
61188;SDS011;47054;39.716;2.904;2023-05-10T09:28:53;5.10;;;2.20;;
61188;SDS011;47054;39.716;2.904;2023-05-10T09:31:43;4.35;;;2.13;;
61188;SDS011;47054;39.716;2.904;2023-05-10T09:34:32;3.20;;;1.70;;
61188;SDS011;47054;39.716;2.904;2023-05-10T09:37:18;5.25;;;2.17;;
61188;SDS011;47054;39.716;2.904;2023-05-10T09:40:15;4.53;;;2.00;;
61188;SDS011;47054;39.716;2.904;2023-05-10T09:43:01;4.55;;;2.08;;
61188;SDS011;47054;39.716;2.904;2023-05-10T09:45:49;4.43;;;1.95;;
61188;SDS011;47054;39.716;2.904;2023-05-10T09:48:34;3.97;;;1.80;;
61188;SDS011;47054;39.716;2.904;2023-05-10T09:51:19;4.70;;;2.13;;
61188;SDS011;47054;39.716;2.904;2023-05-10T09:54:09;4.03;;;2.08;;
61188;SDS011;47054;39.716;2.904;2023-05-10T09:56:53;4.13;;;1.70;;
61188;SDS011;47054;39.716;2.904;2023-05-10T09:59:41;4.35;;;2.05;;
61188;SDS011;47054;39.716;2.904;2023-05-10T10:02:30;4.20;;;2.15;;
61188;SDS011;47054;39.716;2.904;2023-05-10T10:05:15;5.20;;;1.75;;
61188;SDS011;47054;39.716;2.904;2023-05-10T10:08:01;6.25;;;2.10;;
61188;SDS011;47054;39.716;2.904;2023-05-10T10:10:48;5.13;;;1.90;;
61188;SDS011;47054;39.716;2.904;2023-05-10T10:13:34;4.18;;;1.70;;
61188;SDS011;47054;39.716;2.904;2023-05-10T10:16:19;5.85;;;2.10;;
61188;SDS011;47054;39.716;2.904;2023-05-10T10:19:05;5.07;;;2.08;;
61188;SDS011;47054;39.716;2.904;2023-05-10T10:21:50;3.78;;;2.00;;
61188;SDS011;47054;39.716;2.904;2023-05-10T10:24:35;3.42;;;1.77;;
61188;SDS011;47054;39.716;2.904;2023-05-10T10:27:23;3.78;;;1.90;;
61188;SDS011;47054;39.716;2.904;2023-05-10T10:36:40;4.40;;;1.92;;
61188;SDS011;47054;39.716;2.904;2023-05-10T10:39:27;4.87;;;1.77;;
61188;SDS011;47054;39.716;2.904;2023-05-10T10:42:12;4.70;;;1.70;;
61188;SDS011;47054;39.716;2.904;2023-05-10T10:45:15;4.45;;;1.70;;
61188;SDS011;47054;39.716;2.904;2023-05-10T10:51:03;4.82;;;1.80;;
61188;SDS011;47054;39.716;2.904;2023-05-10T10:53:48;4.38;;;1.70;;
61188;SDS011;47054;39.716;2.904;2023-05-10T10:56:33;4.93;;;1.67;;
61188;SDS011;47054;39.716;2.904;2023-05-10T10:59:26;4.15;;;1.65;;
61188;SDS011;47054;39.716;2.904;2023-05-10T11:08:34;3.70;;;1.55;;
61188;SDS011;47054;39.716;2.904;2023-05-10T11:11:26;4.63;;;1.85;;
61188;SDS011;47054;39.716;2.904;2023-05-10T11:14:10;3.88;;;1.70;;
61188;SDS011;47054;39.716;2.904;2023-05-10T11:16:55;3.45;;;1.67;;
61188;SDS011;47054;39.716;2.904;2023-05-10T11:19:57;3.00;;;1.60;;
61188;SDS011;47054;39.716;2.904;2023-05-10T11:23:10;3.17;;;1.48;;
61188;SDS011;47054;39.716;2.904;2023-05-10T11:26:00;3.97;;;1.60;;
61188;SDS011;47054;39.716;2.904;2023-05-10T11:28:49;3.53;;;1.58;;
61188;SDS011;47054;39.716;2.904;2023-05-10T11:31:41;4.13;;;1.60;;
61188;SDS011;47054;39.716;2.904;2023-05-10T11:34:28;3.67;;;1.40;;
61188;SDS011;47054;39.716;2.904;2023-05-10T11:37:14;4.70;;;1.73;;
61188;SDS011;47054;39.716;2.904;2023-05-10T11:39:59;3.95;;;1.60;;
61188;SDS011;47054;39.716;2.904;2023-05-10T11:42:44;3.60;;;1.50;;
61188;SDS011;47054;39.716;2.904;2023-05-10T11:45:31;3.13;;;1.40;;
61188;SDS011;47054;39.716;2.904;2023-05-10T11:48:16;4.57;;;1.70;;
61188;SDS011;47054;39.716;2.904;2023-05-10T11:51:10;3.75;;;1.63;;
61188;SDS011;47054;39.716;2.904;2023-05-10T11:53:55;3.20;;;1.75;;
61188;SDS011;47054;39.716;2.904;2023-05-10T11:56:40;5.20;;;1.52;;
61188;SDS011;47054;39.716;2.904;2023-05-10T11:59:25;3.35;;;1.50;;
61188;SDS011;47054;39.716;2.904;2023-05-10T12:02:10;3.47;;;1.50;;
61188;SDS011;47054;39.716;2.904;2023-05-10T12:04:56;4.40;;;1.52;;
61188;SDS011;47054;39.716;2.904;2023-05-10T12:07:41;2.53;;;1.40;;
61188;SDS011;47054;39.716;2.904;2023-05-10T12:10:26;3.47;;;1.50;;
61188;SDS011;47054;39.716;2.904;2023-05-10T12:13:11;3.42;;;1.40;;
61188;SDS011;47054;39.716;2.904;2023-05-10T12:15:58;3.28;;;1.30;;
61188;SDS011;47054;39.716;2.904;2023-05-10T12:18:43;3.05;;;1.42;;
61188;SDS011;47054;39.716;2.904;2023-05-10T12:21:29;4.90;;;1.60;;
61188;SDS011;47054;39.716;2.904;2023-05-10T12:24:16;3.08;;;1.40;;
61188;SDS011;47054;39.716;2.904;2023-05-10T12:27:05;3.30;;;1.50;;
61188;SDS011;47054;39.716;2.904;2023-05-10T12:29:52;2.67;;;1.38;;
61188;SDS011;47054;39.716;2.904;2023-05-10T12:32:37;6.05;;;1.40;;
61188;SDS011;47054;39.716;2.904;2023-05-10T12:35:25;3.97;;;1.40;;
61188;SDS011;47054;39.716;2.904;2023-05-10T12:38:32;2.88;;;1.30;;
61188;SDS011;47054;39.716;2.904;2023-05-10T12:41:17;2.97;;;1.30;;
61188;SDS011;47054;39.716;2.904;2023-05-10T12:44:02;5.03;;;1.50;;
61188;SDS011;47054;39.716;2.904;2023-05-10T12:46:47;3.67;;;1.50;;
61188;SDS011;47054;39.716;2.904;2023-05-10T12:49:32;4.35;;;1.40;;
61188;SDS011;47054;39.716;2.904;2023-05-10T12:52:16;3.35;;;1.30;;
61188;SDS011;47054;39.716;2.904;2023-05-10T12:55:01;5.35;;;1.58;;
61188;SDS011;47054;39.716;2.904;2023-05-10T12:57:47;3.00;;;1.17;;
61188;SDS011;47054;39.716;2.904;2023-05-10T13:00:31;2.90;;;1.13;;
61188;SDS011;47054;39.716;2.904;2023-05-10T13:03:16;4.43;;;1.20;;
61188;SDS011;47054;39.716;2.904;2023-05-10T13:06:00;4.68;;;1.60;;
61188;SDS011;47054;39.716;2.904;2023-05-10T13:08:45;6.15;;;1.80;;
61188;SDS011;47054;39.716;2.904;2023-05-10T13:11:29;4.30;;;1.20;;
61188;SDS011;47054;39.716;2.904;2023-05-10T13:14:13;4.38;;;1.27;;
61188;SDS011;47054;39.716;2.904;2023-05-10T13:16:58;2.97;;;1.30;;
61188;SDS011;47054;39.716;2.904;2023-05-10T13:19:42;2.53;;;1.15;;
61188;SDS011;47054;39.716;2.904;2023-05-10T13:22:27;3.75;;;1.50;;
61188;SDS011;47054;39.716;2.904;2023-05-10T13:25:12;5.18;;;1.50;;
61188;SDS011;47054;39.716;2.904;2023-05-10T13:27:57;3.35;;;1.25;;
61188;SDS011;47054;39.716;2.904;2023-05-10T13:30:41;4.20;;;1.35;;
61188;SDS011;47054;39.716;2.904;2023-05-10T13:33:26;4.75;;;1.45;;
61188;SDS011;47054;39.716;2.904;2023-05-10T13:36:11;8.73;;;1.33;;
61188;SDS011;47054;39.716;2.904;2023-05-10T13:38:55;4.85;;;1.73;;
61188;SDS011;47054;39.716;2.904;2023-05-10T13:41:40;4.03;;;1.55;;
61188;SDS011;47054;39.716;2.904;2023-05-10T13:44:25;4.28;;;1.20;;
61188;SDS011;47054;39.716;2.904;2023-05-10T13:47:10;2.97;;;1.08;;
61188;SDS011;47054;39.716;2.904;2023-05-10T13:49:55;2.92;;;1.25;;
61188;SDS011;47054;39.716;2.904;2023-05-10T13:52:41;4.72;;;1.33;;
61188;SDS011;47054;39.716;2.904;2023-05-10T13:55:25;5.05;;;1.42;;
61188;SDS011;47054;39.716;2.904;2023-05-10T13:58:10;3.47;;;1.15;;
61188;SDS011;47054;39.716;2.904;2023-05-10T14:00:55;3.83;;;1.20;;
61188;SDS011;47054;39.716;2.904;2023-05-10T14:03:40;4.40;;;1.23;;
61188;SDS011;47054;39.716;2.904;2023-05-10T14:06:24;6.55;;;1.40;;
61188;SDS011;47054;39.716;2.904;2023-05-10T14:09:09;6.05;;;1.63;;
61188;SDS011;47054;39.716;2.904;2023-05-10T14:11:53;4.10;;;1.15;;
61188;SDS011;47054;39.716;2.904;2023-05-10T14:14:38;2.70;;;1.23;;
61188;SDS011;47054;39.716;2.904;2023-05-10T14:17:22;3.47;;;1.20;;
61188;SDS011;47054;39.716;2.904;2023-05-10T14:20:07;3.33;;;1.42;;
61188;SDS011;47054;39.716;2.904;2023-05-10T14:22:52;4.13;;;1.20;;
61188;SDS011;47054;39.716;2.904;2023-05-10T14:25:39;3.38;;;1.38;;
61188;SDS011;47054;39.716;2.904;2023-05-10T14:28:24;4.15;;;1.33;;
61188;SDS011;47054;39.716;2.904;2023-05-10T14:31:09;3.92;;;1.20;;
61188;SDS011;47054;39.716;2.904;2023-05-10T14:33:53;3.92;;;1.20;;
61188;SDS011;47054;39.716;2.904;2023-05-10T14:36:56;5.53;;;1.35;;
61188;SDS011;47054;39.716;2.904;2023-05-10T14:39:41;4.00;;;1.20;;
61188;SDS011;47054;39.716;2.904;2023-05-10T14:42:26;3.85;;;1.20;;
61188;SDS011;47054;39.716;2.904;2023-05-10T14:45:12;5.25;;;1.02;;
61188;SDS011;47054;39.716;2.904;2023-05-10T14:47:57;4.03;;;1.00;;
61188;SDS011;47054;39.716;2.904;2023-05-10T14:50:42;2.88;;;1.23;;
61188;SDS011;47054;39.716;2.904;2023-05-10T14:53:27;3.88;;;0.98;;
61188;SDS011;47054;39.716;2.904;2023-05-10T14:56:12;3.80;;;1.20;;
61188;SDS011;47054;39.716;2.904;2023-05-10T14:58:56;4.88;;;1.00;;
61188;SDS011;47054;39.716;2.904;2023-05-10T15:01:41;4.40;;;1.30;;
61188;SDS011;47054;39.716;2.904;2023-05-10T15:04:26;4.07;;;1.30;;
61188;SDS011;47054;39.716;2.904;2023-05-10T15:07:11;4.85;;;1.27;;
61188;SDS011;47054;39.716;2.904;2023-05-10T15:09:58;5.20;;;1.20;;
61188;SDS011;47054;39.716;2.904;2023-05-10T15:12:43;4.53;;;1.30;;
61188;SDS011;47054;39.716;2.904;2023-05-10T15:15:27;3.13;;;1.02;;
61188;SDS011;47054;39.716;2.904;2023-05-10T15:18:12;2.58;;;1.08;;
61188;SDS011;47054;39.716;2.904;2023-05-10T15:20:56;4.45;;;1.20;;
61188;SDS011;47054;39.716;2.904;2023-05-10T15:23:42;4.75;;;1.10;;
61188;SDS011;47054;39.716;2.904;2023-05-10T15:26:27;4.55;;;1.10;;
61188;SDS011;47054;39.716;2.904;2023-05-10T15:29:12;4.32;;;1.30;;
61188;SDS011;47054;39.716;2.904;2023-05-10T15:32:03;3.40;;;1.05;;
61188;SDS011;47054;39.716;2.904;2023-05-10T15:34:48;7.05;;;1.17;;
61188;SDS011;47054;39.716;2.904;2023-05-10T15:37:32;3.03;;;1.10;;
61188;SDS011;47054;39.716;2.904;2023-05-10T15:40:17;5.88;;;1.20;;
61188;SDS011;47054;39.716;2.904;2023-05-10T15:43:01;4.35;;;1.33;;
61188;SDS011;47054;39.716;2.904;2023-05-10T15:45:46;3.30;;;1.13;;
61188;SDS011;47054;39.716;2.904;2023-05-10T15:48:30;3.92;;;1.30;;
61188;SDS011;47054;39.716;2.904;2023-05-10T15:51:15;2.47;;;1.10;;
61188;SDS011;47054;39.716;2.904;2023-05-10T15:53:59;3.95;;;1.00;;
61188;SDS011;47054;39.716;2.904;2023-05-10T15:56:45;5.82;;;1.10;;
61188;SDS011;47054;39.716;2.904;2023-05-10T15:59:31;4.60;;;1.20;;
61188;SDS011;47054;39.716;2.904;2023-05-10T16:02:15;2.47;;;1.10;;
61188;SDS011;47054;39.716;2.904;2023-05-10T16:05:02;2.88;;;1.20;;
61188;SDS011;47054;39.716;2.904;2023-05-10T16:07:48;3.85;;;1.15;;
61188;SDS011;47054;39.716;2.904;2023-05-10T16:10:32;3.70;;;1.27;;
61188;SDS011;47054;39.716;2.904;2023-05-10T16:13:17;3.75;;;1.25;;
61188;SDS011;47054;39.716;2.904;2023-05-10T16:16:01;6.35;;;1.33;;
61188;SDS011;47054;39.716;2.904;2023-05-10T16:18:46;6.88;;;1.50;;
61188;SDS011;47054;39.716;2.904;2023-05-10T16:21:30;6.70;;;1.35;;
61188;SDS011;47054;39.716;2.904;2023-05-10T16:24:15;7.72;;;1.58;;
61188;SDS011;47054;39.716;2.904;2023-05-10T16:27:00;4.60;;;1.33;;
61188;SDS011;47054;39.716;2.904;2023-05-10T16:29:49;8.68;;;1.60;;
61188;SDS011;47054;39.716;2.904;2023-05-10T16:32:33;10.02;;;1.58;;
61188;SDS011;47054;39.716;2.904;2023-05-10T16:35:19;6.35;;;1.50;;
61188;SDS011;47054;39.716;2.904;2023-05-10T16:38:04;4.40;;;1.27;;
61188;SDS011;47054;39.716;2.904;2023-05-10T16:40:49;8.15;;;1.63;;
61188;SDS011;47054;39.716;2.904;2023-05-10T16:43:33;9.65;;;2.05;;
61188;SDS011;47054;39.716;2.904;2023-05-10T16:46:18;8.48;;;1.60;;
61188;SDS011;47054;39.716;2.904;2023-05-10T16:49:05;14.07;;;1.90;;
61188;SDS011;47054;39.716;2.904;2023-05-10T16:51:49;8.90;;;1.90;;
61188;SDS011;47054;39.716;2.904;2023-05-10T16:54:34;12.50;;;1.92;;
61188;SDS011;47054;39.716;2.904;2023-05-10T16:57:19;13.90;;;1.70;;
61188;SDS011;47054;39.716;2.904;2023-05-10T17:00:04;7.85;;;2.00;;
61188;SDS011;47054;39.716;2.904;2023-05-10T17:02:49;14.43;;;2.20;;
61188;SDS011;47054;39.716;2.904;2023-05-10T17:05:34;9.00;;;2.00;;
61188;SDS011;47054;39.716;2.904;2023-05-10T17:08:19;15.35;;;2.47;;